Time;durP1;ratioP1;P1;durP2;ratioP2;P2;SDS_P1;SDS_P2;PMS_P1;PMS_P2;Temp;Humidity;BMP_temperature;BMP_pressure;BME280_temperature;BME280_humidity;BME280_pressure;Samples;Min_cycle;Max_cycle;Signal;HPM_P1;HPM_P2
2023/05/22 00:00:19;;;;;;;;;;;;;;;;;;1040232;28;3827;-52
2023/05/22 00:01:11;;;;;;;;;;;;;;;;;;1036151;28;4091;-49
2023/05/22 00:01:45;;;;;;;;;;;;;;;;;;1037624;28;2908;-48
2023/05/22 00:02:15;;;;;;;;;;;;;;;;;;1035110;28;3973;-48
2023/05/22 00:02:46;;;;;;;;;;;;;;;;;;1041951;28;1930;-47
2023/05/22 00:03:16;;;;;;;;;;;;;;;;;;1041090;28;4040;-51
2023/05/22 00:03:47;;;;;;;;;;;;;;;;;;1042609;28;2187;-50
2023/05/22 00:04:20;;;;;;;;;;;;;;;;;;1034162;28;4411;-47
2023/05/22 00:04:50;;;;;;;;;;;;;;;;;;1036182;28;2514;-49
2023/05/22 00:05:20;;;;;;;;;;;;;;;;;;1038468;28;3972;-50
2023/05/22 00:05:52;;;;;;;;;;;;;;;;;;1038479;28;3005;-47
2023/05/22 00:06:22;;;;;;;;;;;;;;;;;;1042205;28;3940;-49
2023/05/22 00:06:52;;;;;;;;;;;;;;;;;;1043096;28;1793;-53
2023/05/22 00:07:23;;;;;;;;;;;;;;;;;;1037461;28;3891;-48
2023/05/22 00:07:53;;;;;;;;;;;;;;;;;;1037639;28;3012;-50
2023/05/22 00:08:24;;;;;;;;;;;;;;;;;;1036516;28;3808;-47
2023/05/22 00:08:54;;;;;;;;;;;;;;;;;;1036887;28;3037;-51
2023/05/22 00:09:25;;;;;;;;;;;;;;;;;;1042224;28;4094;-47
2023/05/22 00:09:55;;;;;;;;;;;;;;;;;;1042890;28;1710;-51
2023/05/22 00:10:25;;;;;;;;;;;;;;;;;;1037273;28;4574;-46
2023/05/22 00:10:56;;;;;;;;;;;;;;;;;;1037626;28;1669;-46
2023/05/22 00:11:26;;;;;;;;;;;;;;;;;;1038058;28;4167;-51
2023/05/22 00:11:56;;;;;;;;;;;;;;;;;;1038644;28;1704;-48
2023/05/22 00:12:26;;;;;;;;;;;;;;;;;;1041469;28;3885;-51
2023/05/22 00:12:57;;;;;;;;;;;;;;;;;;1042768;28;1733;-48
2023/05/22 00:13:27;;;;;;;;;;;;;;;;;;1040569;28;3910;-46
2023/05/22 00:13:57;;;;;;;;;;;;;;;;;;1040984;28;2978;-50
2023/05/22 00:14:27;;;;;;;;;;;;;;;;;;1042577;28;4083;-51
2023/05/22 00:14:58;;;;;;;;;;;;;;;;;;1043437;28;2254;-54
2023/05/22 00:15:28;;;;;;;;;;;;;;;;;;1041322;28;3778;-53
2023/05/22 00:15:58;;;;;;;;;;;;;;;;;;1038261;28;3030;-46
2023/05/22 00:16:29;;;;;;;;;;;;;;;;;;1036159;28;4253;-48
2023/05/22 00:16:59;;;;;;;;;;;;;;;;;;1038336;28;1900;-53
2023/05/22 00:17:29;;;;;;;;;;;;;;;;;;1037460;28;4227;-51
2023/05/22 00:18:00;;;;;;;;;;;;;;;;;;1042527;28;3229;-48
2023/05/22 00:18:30;;;;;;;;;;;;;;;;;;1040753;28;4087;-47
2023/05/22 00:19:00;;;;;;;;;;;;;;;;;;1041739;28;3221;-48
2023/05/22 00:19:31;;;;;;;;;;;;;;;;;;1041618;28;3744;-47
2023/05/22 00:20:05;;;;;;;;;;;;;;;;;;1042817;28;1928;-48
2023/05/22 00:20:37;;;;;;;;;;;;;;;;;;1042568;28;3908;-48
2023/05/22 00:21:08;;;;;;;;;;;;;;;;;;1042852;28;1902;-51
2023/05/22 00:21:38;;;;;;;;;;;;;;;;;;1039574;28;4244;-49
2023/05/22 00:22:08;;;;;;;;;;;;;;;;;;1042736;28;3265;-46
2023/05/22 00:22:39;;;;;;;;;;;;;;;;;;1042845;28;4032;-48
2023/05/22 00:23:10;;;;;;;;;;;;;;;;;;1041888;28;4075;-48
2023/05/22 00:23:40;;;;;;;;;;;;;;;;;;1040166;28;3746;-52
2023/05/22 00:24:11;;;;;;;;;;;;;;;;;;1040345;28;3892;-48
2023/05/22 00:24:41;;;;;;;;;;;;;;;;;;1039024;28;1782;-48
2023/05/22 00:25:11;;;;;;;;;;;;;;;;;;1037910;28;3975;-47
2023/05/22 00:25:42;;;;;;;;;;;;;;;;;;1037182;28;3187;-51
2023/05/22 00:26:13;;;;;;;;;;;;;;;;;;1036861;28;3808;-46
2023/05/22 00:26:44;;;;;;;;;;;;;;;;;;1039307;28;1765;-48
2023/05/22 00:27:14;;;;;;;;;;;;;;;;;;1037997;28;3931;-46
2023/05/22 00:27:46;;;;;;;;;;;;;;;;;;1038063;28;2997;-49
2023/05/22 00:28:16;;;;;;;;;;;;;;;;;;1037418;28;4251;-48
2023/05/22 00:28:46;;;;;;;;;;;;;;;;;;1039494;28;1685;-53
2023/05/22 00:29:16;;;;;;;;;;;;;;;;;;1038952;28;3790;-50
2023/05/22 00:29:47;;;;;;;;;;;;;;;;;;1035680;28;3144;-50
2023/05/22 00:30:17;;;;;;;;;;;;;;;;;;1037659;28;3788;-48
2023/05/22 00:30:47;;;;;;;;;;;;;;;;;;1037917;28;2912;-50
2023/05/22 00:31:17;;;;;;;;;;;;;;;;;;1039125;28;4042;-49
2023/05/22 00:31:48;;;;;;;;;;;;;;;;;;1038297;28;3266;-49
2023/05/22 00:32:18;;;;;;;;;;;;;;;;;;1033004;28;4262;-51
2023/05/22 00:32:48;;;;;;;;;;;;;;;;;;1034741;28;1816;-52
2023/05/22 00:33:19;;;;;;;;;;;;;;;;;;1033221;28;4238;-46
2023/05/22 00:33:49;;;;;;;;;;;;;;;;;;1033982;28;3018;-48
2023/05/22 00:34:19;;;;;;;;;;;;;;;;;;1037401;28;4017;-47
2023/05/22 00:34:50;;;;;;;;;;;;;;;;;;1038877;28;1883;-49
2023/05/22 00:35:20;;;;;;;;;;;;;;;;;;1037414;28;4098;-49
2023/05/22 00:35:50;;;;;;;;;;;;;;;;;;1037846;28;3354;-49
2023/05/22 00:36:20;;;;;;;;;;;;;;;;;;1039026;28;3760;-47
2023/05/22 00:36:51;;;;;;;;;;;;;;;;;;1043303;28;1707;-50
2023/05/22 00:37:21;;;;;;;;;;;;;;;;;;1040407;28;4081;-46
2023/05/22 00:37:52;;;;;;;;;;;;;;;;;;1043120;28;3178;-48
2023/05/22 00:38:29;;;;;;;;;;;;;;;;;;1041435;28;3969;-50
2023/05/22 00:39:00;;;;;;;;;;;;;;;;;;1042110;28;3008;-52
2023/05/22 00:39:30;;;;;;;;;;;;;;;;;;1042990;28;3699;-51
2023/05/22 00:40:00;;;;;;;;;;;;;;;;;;1043453;28;1768;-49
2023/05/22 00:40:30;;;;;;;;;;;;;;;;;;1041499;28;4064;-51
2023/05/22 00:41:02;;;;;;;;;;;;;;;;;;1042907;28;1907;-54
2023/05/22 00:41:32;;;;;;;;;;;;;;;;;;1041824;28;3770;-46
2023/05/22 00:42:03;;;;;;;;;;;;;;;;;;1043745;28;1726;-49
2023/05/22 00:42:33;;;;;;;;;;;;;;;;;;1041957;28;3719;-51
2023/05/22 00:43:07;;;;;;;;;;;;;;;;;;1042114;28;3046;-50
2023/05/22 00:43:37;;;;;;;;;;;;;;;;;;1041938;28;4164;-48
2023/05/22 00:44:08;;;;;;;;;;;;;;;;;;1043146;28;1671;-49
2023/05/22 00:44:40;;;;;;;;;;;;;;;;;;1041645;28;3821;-49
2023/05/22 00:45:10;;;;;;;;;;;;;;;;;;1040983;28;5356;-46
2023/05/22 00:45:41;;;;;;;;;;;;;;;;;;1042214;28;3400;-49
2023/05/22 00:46:11;;;;;;;;;;;;;;;;;;1042850;28;3803;-49
2023/05/22 00:46:42;;;;;;;;;;;;;;;;;;1041671;28;3056;-51
2023/05/22 00:47:12;;;;;;;;;;;;;;;;;;1041079;28;3755;-51
2023/05/22 00:47:42;;;;;;;;;;;;;;;;;;1042915;28;1822;-50
2023/05/22 00:48:14;;;;;;;;;;;;;;;;;;1042759;28;3965;-47
2023/05/22 00:48:44;;;;;;;;;;;;;;;;;;1041570;28;2969;-47
2023/05/22 00:49:14;;;;;;;;;;;;;;;;;;1041937;28;4159;-51
2023/05/22 00:49:45;;;;;;;;;;;;;;;;;;1041831;28;2782;-51
2023/05/22 00:50:17;;;;;;;;;;;;;;;;;;1037611;28;3787;-48
2023/05/22 00:50:48;;;;;;;;;;;;;;;;;;1036701;28;3322;-52
2023/05/22 00:51:21;;;;;;;;;;;;;;;;;;1036071;28;3791;-51
2023/05/22 00:51:51;;;;;;;;;;;;;;;;;;1037421;28;3228;-47
2023/05/22 00:52:22;;;;;;;;;;;;;;;;;;1040653;28;4102;-49
2023/05/22 00:52:52;;;;;;;;;;;;;;;;;;1037160;28;3276;-49
2023/05/22 00:53:23;;;;;;;;;;;;;;;;;;1038484;28;4098;-48
2023/05/22 00:53:54;;;;;;;;;;;;;;;;;;1038990;28;3030;-51
2023/05/22 00:54:24;;;;;;;;;;;;;;;;;;1037306;28;3961;-50
2023/05/22 00:54:54;;;;;;;;;;;;;;;;;;1041882;28;2968;-48
2023/05/22 00:55:25;;;;;;;;;;;;;;;;;;1041137;28;3906;-53
2023/05/22 00:55:56;;;;;;;;;;;;;;;;;;1041260;28;3156;-46
2023/05/22 00:56:27;;;;;;;;;;;;;;;;;;1039315;28;3948;-51
2023/05/22 00:57:00;;;;;;;;;;;;;;;;;;1041225;28;3121;-50
2023/05/22 00:57:32;;;;;;;;;;;;;;;;;;1039841;28;3746;-49
2023/05/22 00:58:06;;;;;;;;;;;;;;;;;;1041196;28;2943;-50
2023/05/22 00:58:36;;;;;;;;;;;;;;;;;;1039278;28;3970;-46
2023/05/22 00:59:07;;;;;;;;;;;;;;;;;;1039921;28;3283;-52
2023/05/22 00:59:37;;;;;;;;;;;;;;;;;;1041341;28;4160;-52
2023/05/22 01:00:12;;;;;;;;;;;;;;;;;;1041113;28;2679;-51
2023/05/22 01:00:42;;;;;;;;;;;;;;;;;;1039232;28;5320;-54
2023/05/22 01:01:14;;;;;;;;;;;;;;;;;;1038547;28;4278;-49
2023/05/22 01:01:44;;;;;;;;;;;;;;;;;;1039884;28;3217;-53
2023/05/22 01:02:15;;;;;;;;;;;;;;;;;;1040799;28;3990;-51
2023/05/22 01:02:45;;;;;;;;;;;;;;;;;;1042148;28;2899;-52
2023/05/22 01:03:16;;;;;;;;;;;;;;;;;;1039575;28;3951;-48
2023/05/22 01:03:46;;;;;;;;;;;;;;;;;;1039267;28;2982;-47
2023/05/22 01:04:17;;;;;;;;;;;;;;;;;;1034374;28;4223;-48
2023/05/22 01:04:47;;;;;;;;;;;;;;;;;;1036317;28;3026;-50
2023/05/22 01:05:18;;;;;;;;;;;;;;;;;;1033579;28;3992;-47
2023/05/22 01:05:48;;;;;;;;;;;;;;;;;;1035375;28;3013;-49
2023/05/22 01:06:20;;;;;;;;;;;;;;;;;;1039179;28;3963;-48
2023/05/22 01:06:50;;;;;;;;;;;;;;;;;;1040797;28;2926;-55
2023/05/22 01:07:20;;;;;;;;;;;;;;;;;;1038833;28;4120;-46
2023/05/22 01:07:52;;;;;;;;;;;;;;;;;;1039455;28;3507;-50
2023/05/22 01:08:22;;;;;;;;;;;;;;;;;;1039678;28;3791;-53
2023/05/22 01:08:52;;;;;;;;;;;;;;;;;;1041658;28;2957;-52
2023/05/22 01:09:23;;;;;;;;;;;;;;;;;;1039024;28;4259;-54
2023/05/22 01:09:54;;;;;;;;;;;;;;;;;;1038896;28;2923;-49
2023/05/22 01:10:25;;;;;;;;;;;;;;;;;;1036502;28;3881;-50
2023/05/22 01:10:59;;;;;;;;;;;;;;;;;;1036695;28;2989;-46
2023/05/22 01:11:29;;;;;;;;;;;;;;;;;;1036980;28;3770;-47
2023/05/22 01:12:04;;;;;;;;;;;;;;;;;;1037518;28;2872;-54
2023/05/22 01:12:54;;;;;;;;;;;;;;;;;;1034379;28;3915;-49
2023/05/22 01:13:24;;;;;;;;;;;;;;;;;;1036004;28;4933;-50
2023/05/22 01:14:13;;;;;;;;;;;;;;;;;;1036048;28;3049;-52
2023/05/22 01:15:13;;;;;;;;;;;;;;;;;;1036142;28;4022;-49
2023/05/22 01:16:12;;;;;;;;;;;;;;;;;;1021279;28;3814;-51
2023/05/22 01:16:51;;;;;;;;;;;;;;;;;;1027877;28;3726;-49
2023/05/22 01:17:33;;;;;;;;;;;;;;;;;;1028279;28;4050;-50
2023/05/22 01:18:09;;;;;;;;;;;;;;;;;;1027489;28;3144;-51
2023/05/22 01:18:48;;;;;;;;;;;;;;;;;;1035939;28;3696;-49
2023/05/22 01:19:18;;;;;;;;;;;;;;;;;;1040129;28;4333;-51
2023/05/22 01:20:00;;;;;;;;;;;;;;;;;;1034436;28;1429;-49
2023/05/22 01:20:39;;;;;;;;;;;;;;;;;;1026200;28;4077;-50
2023/05/22 01:21:21;;;;;;;;;;;;;;;;;;1024915;28;3999;-50
2023/05/22 01:22:09;;;;;;;;;;;;;;;;;;1035268;28;2970;-49
2023/05/22 01:22:46;;;;;;;;;;;;;;;;;;1040651;28;3761;-48
2023/05/22 01:23:34;;;;;;;;;;;;;;;;;;1041402;28;4489;-50
2023/05/22 01:24:25;;;;;;;;;;;;;;;;;;1041397;28;2998;-46
2023/05/22 01:25:03;;;;;;;;;;;;;;;;;;1041473;28;4011;-49
2023/05/22 01:25:34;;;;;;;;;;;;;;;;;;1040988;28;3943;-51
2023/05/22 01:26:07;;;;;;;;;;;;;;;;;;1042562;28;3095;-51
2023/05/22 01:27:02;;;;;;;;;;;;;;;;;;1042056;28;3932;-47
2023/05/22 01:27:35;;;;;;;;;;;;;;;;;;1040597;28;3925;-49
2023/05/22 01:28:12;;;;;;;;;;;;;;;;;;1042746;28;1776;-48
2023/05/22 01:28:45;;;;;;;;;;;;;;;;;;1041822;28;3763;-47
2023/05/22 01:29:29;;;;;;;;;;;;;;;;;;1039726;28;3970;-50
2023/05/22 01:30:05;;;;;;;;;;;;;;;;;;1041526;28;3003;-51
2023/05/22 01:31:07;;;;;;;;;;;;;;;;;;1040886;28;3962;-49
2023/05/22 01:31:41;;;;;;;;;;;;;;;;;;1028285;28;3914;-50
2023/05/22 01:32:15;;;;;;;;;;;;;;;;;;1037411;28;4027;-46
2023/05/22 01:32:45;;;;;;;;;;;;;;;;;;1038405;28;2847;-46
2023/05/22 01:33:16;;;;;;;;;;;;;;;;;;1037335;28;3799;-49
2023/05/22 01:33:49;;;;;;;;;;;;;;;;;;1042808;28;2944;-47
2023/05/22 01:34:19;;;;;;;;;;;;;;;;;;1041304;28;4134;-54
2023/05/22 01:34:54;;;;;;;;;;;;;;;;;;1041560;28;3175;-47
2023/05/22 01:35:28;;;;;;;;;;;;;;;;;;1040998;28;3873;-50
2023/05/22 01:36:00;;;;;;;;;;;;;;;;;;1042083;28;3079;-50
2023/05/22 01:36:31;;;;;;;;;;;;;;;;;;1042264;28;3881;-45
2023/05/22 01:37:02;;;;;;;;;;;;;;;;;;1036798;28;3057;-52
2023/05/22 01:37:33;;;;;;;;;;;;;;;;;;1031697;28;4072;-51
2023/05/22 01:38:04;;;;;;;;;;;;;;;;;;1034653;28;3064;-47
2023/05/22 01:38:35;;;;;;;;;;;;;;;;;;1032999;28;3733;-47
2023/05/22 01:39:05;;;;;;;;;;;;;;;;;;1039196;28;3347;-46
2023/05/22 01:39:36;;;;;;;;;;;;;;;;;;1041026;28;4169;-55
2023/05/22 01:40:07;;;;;;;;;;;;;;;;;;1041506;28;3079;-46
2023/05/22 01:40:37;;;;;;;;;;;;;;;;;;1039018;28;3688;-50
2023/05/22 01:41:08;;;;;;;;;;;;;;;;;;1036883;28;3145;-46
2023/05/22 01:41:39;;;;;;;;;;;;;;;;;;1036325;28;3927;-50
2023/05/22 01:42:10;;;;;;;;;;;;;;;;;;1032216;28;3886;-48
2023/05/22 01:42:41;;;;;;;;;;;;;;;;;;1034376;28;3075;-54
2023/05/22 01:43:14;;;;;;;;;;;;;;;;;;1037842;28;4100;-50
2023/05/22 01:43:44;;;;;;;;;;;;;;;;;;1038774;28;3050;-49
2023/05/22 01:44:15;;;;;;;;;;;;;;;;;;1041595;28;3969;-46
2023/05/22 01:44:46;;;;;;;;;;;;;;;;;;1043210;28;1785;-52
2023/05/22 01:45:17;;;;;;;;;;;;;;;;;;1040071;28;3789;-48
2023/05/22 01:45:47;;;;;;;;;;;;;;;;;;1041329;28;3171;-49
2023/05/22 01:46:18;;;;;;;;;;;;;;;;;;1041998;28;4376;-49
2023/05/22 01:46:48;;;;;;;;;;;;;;;;;;1042194;28;3057;-49
2023/05/22 01:47:18;;;;;;;;;;;;;;;;;;1041869;28;4228;-47
2023/05/22 01:47:49;;;;;;;;;;;;;;;;;;1042754;28;2968;-50
2023/05/22 01:48:19;;;;;;;;;;;;;;;;;;1038265;28;4118;-48
2023/05/22 01:48:50;;;;;;;;;;;;;;;;;;1041010;28;3109;-54
2023/05/22 01:49:20;;;;;;;;;;;;;;;;;;1041556;28;4543;-48
2023/05/22 01:49:51;;;;;;;;;;;;;;;;;;1040316;28;3516;-51
2023/05/22 01:50:21;;;;;;;;;;;;;;;;;;1040176;28;4495;-46
2023/05/22 01:50:52;;;;;;;;;;;;;;;;;;1041352;28;3038;-49
2023/05/22 01:51:32;;;;;;;;;;;;;;;;;;1039584;28;4210;-50
2023/05/22 01:52:08;;;;;;;;;;;;;;;;;;1040958;28;3075;-48
2023/05/22 01:52:52;;;;;;;;;;;;;;;;;;1040694;28;3720;-50
2023/05/22 01:53:27;;;;;;;;;;;;;;;;;;1041303;28;3772;-49
2023/05/22 01:54:04;;;;;;;;;;;;;;;;;;1039829;28;3039;-49
2023/05/22 01:54:41;;;;;;;;;;;;;;;;;;1038992;28;3801;-48
2023/05/22 01:55:16;;;;;;;;;;;;;;;;;;1040277;28;3950;-52
2023/05/22 01:55:46;;;;;;;;;;;;;;;;;;1041285;28;3288;-53
2023/05/22 01:56:29;;;;;;;;;;;;;;;;;;1041032;28;4043;-48
2023/05/22 01:57:05;;;;;;;;;;;;;;;;;;1039896;28;3668;-47
2023/05/22 01:57:42;;;;;;;;;;;;;;;;;;1041286;28;3785;-50
2023/05/22 01:58:20;;;;;;;;;;;;;;;;;;1038844;28;4442;-50
2023/05/22 01:59:17;;;;;;;;;;;;;;;;;;1040446;28;2986;-47
2023/05/22 01:59:48;;;;;;;;;;;;;;;;;;1019483;28;3858;-50
2023/05/22 02:00:20;;;;;;;;;;;;;;;;;;1022063;28;3987;-47
2023/05/22 02:00:53;;;;;;;;;;;;;;;;;;1042674;28;1720;-49
2023/05/22 02:01:25;;;;;;;;;;;;;;;;;;1039205;28;3909;-53
2023/05/22 02:01:57;;;;;;;;;;;;;;;;;;1040815;28;3108;-49
2023/05/22 02:02:27;;;;;;;;;;;;;;;;;;1038764;28;4106;-45
2023/05/22 02:03:02;;;;;;;;;;;;;;;;;;1037024;28;2872;-48
2023/05/22 02:03:33;;;;;;;;;;;;;;;;;;1025938;28;3943;-52
2023/05/22 02:04:04;;;;;;;;;;;;;;;;;;1026623;28;2963;-52
2023/05/22 02:04:38;;;;;;;;;;;;;;;;;;1028372;28;3797;-48
2023/05/22 02:05:10;;;;;;;;;;;;;;;;;;1033422;28;3099;-47
2023/05/22 02:05:41;;;;;;;;;;;;;;;;;;1039607;28;3862;-46
2023/05/22 02:06:12;;;;;;;;;;;;;;;;;;1036973;28;4223;-51
2023/05/22 02:06:43;;;;;;;;;;;;;;;;;;1035364;28;3276;-50
2023/05/22 02:07:14;;;;;;;;;;;;;;;;;;1036312;28;3972;-53
2023/05/22 02:07:46;;;;;;;;;;;;;;;;;;1038030;28;2726;-50
2023/05/22 02:08:17;;;;;;;;;;;;;;;;;;1041644;28;3786;-48
2023/05/22 02:08:47;;;;;;;;;;;;;;;;;;1040686;28;3074;-50
2023/05/22 02:09:20;;;;;;;;;;;;;;;;;;1041475;28;3876;-51
2023/05/22 02:09:50;;;;;;;;;;;;;;;;;;1040390;28;2909;-53
2023/05/22 02:10:21;;;;;;;;;;;;;;;;;;1042607;28;4381;-50
2023/05/22 02:10:53;;;;;;;;;;;;;;;;;;1042390;28;2055;-49
2023/05/22 02:11:25;;;;;;;;;;;;;;;;;;1042133;28;3819;-46
2023/05/22 02:11:57;;;;;;;;;;;;;;;;;;1042042;28;2055;-49
2023/05/22 02:12:27;;;;;;;;;;;;;;;;;;1042785;28;4014;-48
2023/05/22 02:12:58;;;;;;;;;;;;;;;;;;1041179;28;3033;-48
2023/05/22 02:13:29;;;;;;;;;;;;;;;;;;1041525;28;3769;-47
2023/05/22 02:14:00;;;;;;;;;;;;;;;;;;1043404;28;1770;-52
2023/05/22 02:14:31;;;;;;;;;;;;;;;;;;1041870;28;3999;-48
2023/05/22 02:15:02;;;;;;;;;;;;;;;;;;1038631;28;2902;-50
2023/05/22 02:15:32;;;;;;;;;;;;;;;;;;1038221;28;4383;-50
2023/05/22 02:16:02;;;;;;;;;;;;;;;;;;1035451;28;2934;-50
2023/05/22 02:16:33;;;;;;;;;;;;;;;;;;1030524;28;3834;-47
2023/05/22 02:17:04;;;;;;;;;;;;;;;;;;1038455;28;2941;-46
2023/05/22 02:17:41;;;;;;;;;;;;;;;;;;1039383;28;3910;-49
2023/05/22 02:18:12;;;;;;;;;;;;;;;;;;1042112;28;3817;-49
2023/05/22 02:18:43;;;;;;;;;;;;;;;;;;1041923;28;2969;-50
2023/05/22 02:19:13;;;;;;;;;;;;;;;;;;1039132;28;3784;-45
2023/05/22 02:19:44;;;;;;;;;;;;;;;;;;1037613;28;2896;-51
2023/05/22 02:20:14;;;;;;;;;;;;;;;;;;1037226;28;3808;-50
2023/05/22 02:20:45;;;;;;;;;;;;;;;;;;1036784;28;2857;-53
2023/05/22 02:21:15;;;;;;;;;;;;;;;;;;1041427;28;4432;-52
2023/05/22 02:21:45;;;;;;;;;;;;;;;;;;1043089;28;1883;-48
2023/05/22 02:22:16;;;;;;;;;;;;;;;;;;1042258;28;3947;-49
2023/05/22 02:22:46;;;;;;;;;;;;;;;;;;1042727;28;1988;-47
2023/05/22 02:23:17;;;;;;;;;;;;;;;;;;1042533;28;3835;-51
2023/05/22 02:23:47;;;;;;;;;;;;;;;;;;1043321;28;3146;-49
2023/05/22 02:24:17;;;;;;;;;;;;;;;;;;1042349;28;3981;-49
2023/05/22 02:24:48;;;;;;;;;;;;;;;;;;1042547;28;2673;-51
2023/05/22 02:25:19;;;;;;;;;;;;;;;;;;1041186;28;3736;-50
2023/05/22 02:25:49;;;;;;;;;;;;;;;;;;1039811;28;1667;-45
2023/05/22 02:26:20;;;;;;;;;;;;;;;;;;1037864;28;4060;-50
2023/05/22 02:26:50;;;;;;;;;;;;;;;;;;1036082;28;3274;-50
2023/05/22 02:27:20;;;;;;;;;;;;;;;;;;1037767;28;4065;-46
2023/05/22 02:27:51;;;;;;;;;;;;;;;;;;1044007;28;1786;-49
2023/05/22 02:28:21;;;;;;;;;;;;;;;;;;1040524;28;4070;-49
2023/05/22 02:28:52;;;;;;;;;;;;;;;;;;1042138;28;2870;-50
2023/05/22 02:29:22;;;;;;;;;;;;;;;;;;1042056;28;4007;-50
2023/05/22 02:29:52;;;;;;;;;;;;;;;;;;1043979;28;1731;-50
2023/05/22 02:30:23;;;;;;;;;;;;;;;;;;1043664;28;3950;-48
2023/05/22 02:30:53;;;;;;;;;;;;;;;;;;1042311;28;2922;-51
2023/05/22 02:31:23;;;;;;;;;;;;;;;;;;1042577;28;3787;-52
2023/05/22 02:31:54;;;;;;;;;;;;;;;;;;1042870;28;2938;-55
2023/05/22 02:32:24;;;;;;;;;;;;;;;;;;1040918;28;4058;-48
2023/05/22 02:32:57;;;;;;;;;;;;;;;;;;1042979;28;3238;-50
2023/05/22 02:33:28;;;;;;;;;;;;;;;;;;1043725;28;3957;-50
2023/05/22 02:33:58;;;;;;;;;;;;;;;;;;1043217;28;1796;-48
2023/05/22 02:34:30;;;;;;;;;;;;;;;;;;1042132;28;3779;-52
2023/05/22 02:35:01;;;;;;;;;;;;;;;;;;1042969;28;1990;-48
2023/05/22 02:35:31;;;;;;;;;;;;;;;;;;1043116;28;4204;-48
2023/05/22 02:36:01;;;;;;;;;;;;;;;;;;1043192;28;1940;-51
2023/05/22 02:36:32;;;;;;;;;;;;;;;;;;1043141;28;3995;-51
2023/05/22 02:37:02;;;;;;;;;;;;;;;;;;1040406;28;2480;-49
2023/05/22 02:37:33;;;;;;;;;;;;;;;;;;1042229;28;3883;-51
2023/05/22 02:38:03;;;;;;;;;;;;;;;;;;1041967;28;3152;-49
2023/05/22 02:38:33;;;;;;;;;;;;;;;;;;1043229;28;3975;-49
2023/05/22 02:39:04;;;;;;;;;;;;;;;;;;1044319;28;3123;-49
2023/05/22 02:39:34;;;;;;;;;;;;;;;;;;1040477;28;3970;-51
2023/05/22 02:40:05;;;;;;;;;;;;;;;;;;1044041;28;3295;-47
2023/05/22 02:40:35;;;;;;;;;;;;;;;;;;1042767;28;3936;-53
2023/05/22 02:41:06;;;;;;;;;;;;;;;;;;1039479;28;1747;-52
2023/05/22 02:41:36;;;;;;;;;;;;;;;;;;1034720;28;3774;-49
2023/05/22 02:42:06;;;;;;;;;;;;;;;;;;1039718;28;1766;-48
2023/05/22 02:42:37;;;;;;;;;;;;;;;;;;1038306;28;3776;-48
2023/05/22 02:43:07;;;;;;;;;;;;;;;;;;1042618;28;3067;-49
2023/05/22 02:43:38;;;;;;;;;;;;;;;;;;1038424;28;3732;-49
2023/05/22 02:44:08;;;;;;;;;;;;;;;;;;1038741;28;3028;-50
2023/05/22 02:44:38;;;;;;;;;;;;;;;;;;1037510;28;3910;-46
2023/05/22 02:45:08;;;;;;;;;;;;;;;;;;1038011;28;3024;-52
2023/05/22 02:45:39;;;;;;;;;;;;;;;;;;1042006;28;3985;-49
2023/05/22 02:46:09;;;;;;;;;;;;;;;;;;1042543;28;4100;-47
2023/05/22 02:46:39;;;;;;;;;;;;;;;;;;1040057;28;3042;-49
2023/05/22 02:47:10;;;;;;;;;;;;;;;;;;1037489;28;4084;-48
2023/05/22 02:47:40;;;;;;;;;;;;;;;;;;1038287;28;3019;-47
2023/05/22 02:48:10;;;;;;;;;;;;;;;;;;1041440;28;4077;-49
2023/05/22 02:48:40;;;;;;;;;;;;;;;;;;1043173;28;2769;-48
2023/05/22 02:49:11;;;;;;;;;;;;;;;;;;1040417;28;3899;-49
2023/05/22 02:49:41;;;;;;;;;;;;;;;;;;1041927;28;3834;-47
2023/05/22 02:50:11;;;;;;;;;;;;;;;;;;1040977;28;3832;-48
2023/05/22 02:50:43;;;;;;;;;;;;;;;;;;1041929;28;3728;-48
2023/05/22 02:51:13;;;;;;;;;;;;;;;;;;1041701;28;3943;-53
2023/05/22 02:51:46;;;;;;;;;;;;;;;;;;1042815;28;3164;-47
2023/05/22 02:52:16;;;;;;;;;;;;;;;;;;1041426;28;3803;-52
2023/05/22 02:52:48;;;;;;;;;;;;;;;;;;1042310;28;3012;-51
2023/05/22 02:53:19;;;;;;;;;;;;;;;;;;1042430;28;4248;-52
2023/05/22 02:53:49;;;;;;;;;;;;;;;;;;1044108;28;1656;-52
2023/05/22 02:54:19;;;;;;;;;;;;;;;;;;1041476;28;4276;-46
2023/05/22 02:54:49;;;;;;;;;;;;;;;;;;1043895;28;2969;-52
2023/05/22 02:55:20;;;;;;;;;;;;;;;;;;1040267;28;3953;-49
2023/05/22 02:55:51;;;;;;;;;;;;;;;;;;1044080;28;1718;-49
2023/05/22 02:56:22;;;;;;;;;;;;;;;;;;1042056;28;3769;-48
2023/05/22 02:56:53;;;;;;;;;;;;;;;;;;1043387;28;2846;-49
2023/05/22 02:57:23;;;;;;;;;;;;;;;;;;1042607;28;3883;-48
2023/05/22 02:57:53;;;;;;;;;;;;;;;;;;1038810;28;1805;-47
2023/05/22 02:58:24;;;;;;;;;;;;;;;;;;1038253;28;3884;-46
2023/05/22 02:58:55;;;;;;;;;;;;;;;;;;1037961;28;2939;-45
2023/05/22 02:59:26;;;;;;;;;;;;;;;;;;1038773;28;3892;-49
2023/05/22 02:59:56;;;;;;;;;;;;;;;;;;1042396;28;2918;-48
2023/05/22 03:00:26;;;;;;;;;;;;;;;;;;1042885;28;4036;-49
2023/05/22 03:00:57;;;;;;;;;;;;;;;;;;1042564;28;2546;-49
2023/05/22 03:01:29;;;;;;;;;;;;;;;;;;1040378;28;3914;-45
2023/05/22 03:01:59;;;;;;;;;;;;;;;;;;1041298;28;3188;-49
2023/05/22 03:02:31;;;;;;;;;;;;;;;;;;1037725;28;4003;-52
2023/05/22 03:03:01;;;;;;;;;;;;;;;;;;1037450;28;3009;-50
2023/05/22 03:03:32;;;;;;;;;;;;;;;;;;1038733;28;3907;-49
2023/05/22 03:04:03;;;;;;;;;;;;;;;;;;1038065;28;3185;-51
2023/05/22 03:04:37;;;;;;;;;;;;;;;;;;1039636;28;3880;-47
2023/05/22 03:05:07;;;;;;;;;;;;;;;;;;1039614;28;3070;-50
2023/05/22 03:05:38;;;;;;;;;;;;;;;;;;1040767;28;3878;-50
2023/05/22 03:06:09;;;;;;;;;;;;;;;;;;1038816;28;3678;-51
2023/05/22 03:06:40;;;;;;;;;;;;;;;;;;1040827;28;3615;-52
2023/05/22 03:07:11;;;;;;;;;;;;;;;;;;1038921;28;4101;-54
2023/05/22 03:07:41;;;;;;;;;;;;;;;;;;1041377;28;3252;-51
2023/05/22 03:08:12;;;;;;;;;;;;;;;;;;1042665;28;4273;-46
2023/05/22 03:08:43;;;;;;;;;;;;;;;;;;1040808;28;3130;-50
2023/05/22 03:09:14;;;;;;;;;;;;;;;;;;1040978;28;3959;-50
2023/05/22 03:09:45;;;;;;;;;;;;;;;;;;1042890;28;3007;-49
2023/05/22 03:10:16;;;;;;;;;;;;;;;;;;1041234;28;3813;-52
2023/05/22 03:10:46;;;;;;;;;;;;;;;;;;1041162;28;2878;-47
2023/05/22 03:11:16;;;;;;;;;;;;;;;;;;1033859;28;4597;-48
2023/05/22 03:11:47;;;;;;;;;;;;;;;;;;1034636;28;2964;-48
2023/05/22 03:12:17;;;;;;;;;;;;;;;;;;1034432;28;4208;-51
2023/05/22 03:12:47;;;;;;;;;;;;;;;;;;1034382;28;3049;-49
2023/05/22 03:13:18;;;;;;;;;;;;;;;;;;1041593;28;3960;-48
2023/05/22 03:13:48;;;;;;;;;;;;;;;;;;1042132;28;2912;-50
2023/05/22 03:14:18;;;;;;;;;;;;;;;;;;1043219;28;3784;-48
2023/05/22 03:14:49;;;;;;;;;;;;;;;;;;1041125;28;2726;-50
2023/05/22 03:15:20;;;;;;;;;;;;;;;;;;1038391;28;3903;-49
2023/05/22 03:15:50;;;;;;;;;;;;;;;;;;1039818;28;3028;-49
2023/05/22 03:16:21;;;;;;;;;;;;;;;;;;1040587;28;4068;-47
2023/05/22 03:16:53;;;;;;;;;;;;;;;;;;1039994;28;3385;-46
2023/05/22 03:17:23;;;;;;;;;;;;;;;;;;1040969;28;4073;-48
2023/05/22 03:17:54;;;;;;;;;;;;;;;;;;1041913;28;2951;-50
2023/05/22 03:18:24;;;;;;;;;;;;;;;;;;1042656;28;3823;-51
2023/05/22 03:19:07;;;;;;;;;;;;;;;;;;1041857;28;2918;-45
2023/05/22 03:19:38;;;;;;;;;;;;;;;;;;1040586;28;3860;-51
2023/05/22 03:20:08;;;;;;;;;;;;;;;;;;1042355;28;2765;-48
2023/05/22 03:20:38;;;;;;;;;;;;;;;;;;1041080;28;3893;-48
2023/05/22 03:21:08;;;;;;;;;;;;;;;;;;1041943;28;2717;-50
2023/05/22 03:21:39;;;;;;;;;;;;;;;;;;1040221;28;3881;-52
2023/05/22 03:22:10;;;;;;;;;;;;;;;;;;1040070;28;5162;-49
2023/05/22 03:22:40;;;;;;;;;;;;;;;;;;1042508;28;3442;-51
2023/05/22 03:23:10;;;;;;;;;;;;;;;;;;1039986;28;4009;-47
2023/05/22 03:23:41;;;;;;;;;;;;;;;;;;1041541;28;3428;-49
2023/05/22 03:24:12;;;;;;;;;;;;;;;;;;1042075;28;3962;-51
2023/05/22 03:24:42;;;;;;;;;;;;;;;;;;1040528;28;3097;-48
2023/05/22 03:25:12;;;;;;;;;;;;;;;;;;1041041;28;3778;-48
2023/05/22 03:25:42;;;;;;;;;;;;;;;;;;1041996;28;2833;-50
2023/05/22 03:26:13;;;;;;;;;;;;;;;;;;1036346;28;3955;-52
2023/05/22 03:26:43;;;;;;;;;;;;;;;;;;1038041;28;1869;-48
2023/05/22 03:27:14;;;;;;;;;;;;;;;;;;1036283;28;4073;-49
2023/05/22 03:27:44;;;;;;;;;;;;;;;;;;1038097;28;2764;-53
2023/05/22 03:28:15;;;;;;;;;;;;;;;;;;1041240;28;3836;-49
2023/05/22 03:28:45;;;;;;;;;;;;;;;;;;1042051;28;3225;-52
2023/05/22 03:29:15;;;;;;;;;;;;;;;;;;1040944;28;3933;-49
2023/05/22 03:29:46;;;;;;;;;;;;;;;;;;1041541;28;2967;-52
2023/05/22 03:30:16;;;;;;;;;;;;;;;;;;1041507;28;3969;-48
2023/05/22 03:30:46;;;;;;;;;;;;;;;;;;1041566;28;2987;-51
2023/05/22 03:31:17;;;;;;;;;;;;;;;;;;1039860;28;3978;-53
2023/05/22 03:31:47;;;;;;;;;;;;;;;;;;1043003;28;3127;-52
2023/05/22 03:32:17;;;;;;;;;;;;;;;;;;1041961;28;4412;-51
2023/05/22 03:32:48;;;;;;;;;;;;;;;;;;1040661;28;3339;-50
2023/05/22 03:33:18;;;;;;;;;;;;;;;;;;1040411;28;4046;-47
2023/05/22 03:33:48;;;;;;;;;;;;;;;;;;1042482;28;3394;-47
2023/05/22 03:34:18;;;;;;;;;;;;;;;;;;1041258;28;4014;-51
2023/05/22 03:34:49;;;;;;;;;;;;;;;;;;1043202;28;3171;-48
2023/05/22 03:35:19;;;;;;;;;;;;;;;;;;1041605;28;3819;-46
2023/05/22 03:35:49;;;;;;;;;;;;;;;;;;1042224;28;3264;-50
2023/05/22 03:36:24;;;;;;;;;;;;;;;;;;1040750;28;3974;-50
2023/05/22 03:36:56;;;;;;;;;;;;;;;;;;1042839;28;3058;-48
2023/05/22 03:37:26;;;;;;;;;;;;;;;;;;1040490;28;4011;-49
2023/05/22 03:37:56;;;;;;;;;;;;;;;;;;1042969;28;3254;-49
2023/05/22 03:38:26;;;;;;;;;;;;;;;;;;1040525;28;3858;-51
2023/05/22 03:38:57;;;;;;;;;;;;;;;;;;1042978;28;2928;-52
2023/05/22 03:39:27;;;;;;;;;;;;;;;;;;1041232;28;3967;-49
2023/05/22 03:39:58;;;;;;;;;;;;;;;;;;1042733;28;2758;-47
2023/05/22 03:40:28;;;;;;;;;;;;;;;;;;1042748;28;4386;-49
2023/05/22 03:40:58;;;;;;;;;;;;;;;;;;1042774;28;3083;-48
2023/05/22 03:41:28;;;;;;;;;;;;;;;;;;1039754;28;3811;-50